CheckWX is a tool to help pilots better visualize weather data.  It is not intended as a substitute for an official pre-flight weather briefing.

08:19:48 UTC

KMDT TAF
Harrisburg International Airport
Harrisburg, Pennsylvania, USA
KMDT 190551Z 1906/2006 29008KT P6SM FEW090 FM191700 27005KT P6SM SCT070

Mar-19@
06:00 UTC

Mar-19 @ 06:00 UTC

Mar-19@
17:00 UTC

Mar-19 @ 17:00 UTC

KMDT 190551Z 1906/2006 29008KT P6SM FEW090
Wind
  • 290° at 8 KTS
Cloud Levels
  • Few at 9,000' AGL

Mar-19@
17:00 UTC

Mar-19 @ 17:00 UTC

Mar-20@
06:00 UTC

Mar-20 @ 06:00 UTC

FM191700 27005KT P6SM SCT070

From

From Standard forecast or significant change

Wind
  • 270° at 5 KTS
Cloud Levels
  • Scattered at 7,000' AGL